Time;durP1;ratioP1;P1;durP2;ratioP2;P2;SDS_P1;SDS_P2;PMS_P1;PMS_P2;Temp;Humidity;BMP_temperature;BMP_pressure;BME280_temperature;BME280_humidity;BME280_pressure;Samples;Min_cycle;Max_cycle;Signal;HPM_P1;HPM_P2
2022/04/01 00:01:55;;;;;;;;;;;;;;;;;;4992239;28;135190;-63
2022/04/01 00:04:21;;;;;;;;;;;;;;;;;;4984323;28;127565;-63
2022/04/01 00:06:47;;;;;;;;;;;;;;;;;;4986027;28;135650;-63
2022/04/01 00:09:14;;;;;;;;;;;;;;;;;;4984341;28;108238;-65
2022/04/01 00:11:40;;;;;;;;;;;;;;;;;;4986385;28;106466;-63
2022/04/01 00:14:08;;;;;;;;;;;;;;;;;;4987195;28;133850;-65
2022/04/01 00:16:34;;;;;;;;;;;;;;;;;;4987833;28;136187;-67
2022/04/01 00:19:00;;;;;;;;;;;;;;;;;;4967139;28;127833;-65
2022/04/01 00:21:27;;;;;;;;;;;;;;;;;;4987382;28;106691;-65
2022/04/01 00:23:53;;;;;;;;;;;;;;;;;;4990041;28;106309;-65
2022/04/01 00:26:20;;;;;;;;;;;;;;;;;;4987088;28;134504;-65
2022/04/01 00:28:46;;;;;;;;;;;;;;;;;;4982048;28;135571;-65
2022/04/01 00:31:13;;;;;;;;;;;;;;;;;;4965067;28;127746;-65
2022/04/01 00:33:40;;;;;;;;;;;;;;;;;;4980647;28;106709;-65
2022/04/01 00:36:08;;;;;;;;;;;;;;;;;;4968201;28;107327;-65
2022/04/01 00:38:35;;;;;;;;;;;;;;;;;;4981268;28;128466;-66
2022/04/01 00:41:01;;;;;;;;;;;;;;;;;;4983000;28;136579;-65
2022/04/01 00:43:27;;;;;;;;;;;;;;;;;;4997652;28;112225;-65
2022/04/01 00:45:54;;;;;;;;;;;;;;;;;;4991464;28;129032;-65
2022/04/01 00:48:20;;;;;;;;;;;;;;;;;;4966550;28;131822;-65
2022/04/01 00:50:46;;;;;;;;;;;;;;;;;;4985710;28;127982;-65
2022/04/01 00:53:12;;;;;;;;;;;;;;;;;;4987426;28;132245;-65
2022/04/01 00:55:39;;;;;;;;;;;;;;;;;;4967433;28;107233;-65
2022/04/01 00:58:05;;;;;;;;;;;;;;;;;;4970435;28;129422;-65
2022/04/01 01:00:32;;;;;;;;;;;;;;;;;;4970097;28;107195;-65
2022/04/01 01:02:59;;;;;;;;;;;;;;;;;;4986438;28;108321;-65
2022/04/01 01:05:25;;;;;;;;;;;;;;;;;;4986567;28;120317;-65
2022/04/01 01:07:51;;;;;;;;;;;;;;;;;;4967931;28;136028;-65
2022/04/01 01:10:18;;;;;;;;;;;;;;;;;;4982712;28;128032;-64
2022/04/01 01:12:45;;;;;;;;;;;;;;;;;;4983070;28;135202;-64
2022/04/01 01:15:13;;;;;;;;;;;;;;;;;;4988680;28;107177;-64
2022/04/01 01:17:39;;;;;;;;;;;;;;;;;;4967257;28;129403;-64
2022/04/01 01:20:12;;;;;;;;;;;;;;;;;;4986316;28;137692;-64
2022/04/01 01:22:39;;;;;;;;;;;;;;;;;;4987410;28;134118;-64
2022/04/01 01:25:05;;;;;;;;;;;;;;;;;;4969583;28;105926;-64
2022/04/01 01:27:32;;;;;;;;;;;;;;;;;;4987130;28;106538;-64
2022/04/01 01:29:59;;;;;;;;;;;;;;;;;;4970281;28;109871;-65
2022/04/01 01:32:28;;;;;;;;;;;;;;;;;;4988346;28;133583;-64
2022/04/01 01:34:55;;;;;;;;;;;;;;;;;;4984802;28;107338;-63
2022/04/01 01:37:21;;;;;;;;;;;;;;;;;;4987021;28;128626;-64
2022/04/01 01:39:47;;;;;;;;;;;;;;;;;;4967360;28;138227;-63
2022/04/01 01:42:15;;;;;;;;;;;;;;;;;;4968990;28;108805;-65
2022/04/01 01:44:41;;;;;;;;;;;;;;;;;;4968755;28;114936;-65
2022/04/01 01:47:08;;;;;;;;;;;;;;;;;;4985949;28;106295;-65
2022/04/01 01:49:34;;;;;;;;;;;;;;;;;;4988746;28;108125;-66
2022/04/01 01:54:49;;;;;;;;;;;;;;;;;;4980389;28;135609;-65
2022/04/01 01:57:16;;;;;;;;;;;;;;;;;;4967419;28;106523;-62
2022/04/01 01:59:42;;;;;;;;;;;;;;;;;;4969143;28;136816;-65
2022/04/01 02:02:08;;;;;;;;;;;;;;;;;;4965272;28;136440;-64
2022/04/01 02:04:35;;;;;;;;;;;;;;;;;;4985069;28;129034;-65
2022/04/01 02:07:01;;;;;;;;;;;;;;;;;;4972690;28;135265;-64
2022/04/01 02:09:27;;;;;;;;;;;;;;;;;;4986271;28;135649;-65
2022/04/01 02:11:54;;;;;;;;;;;;;;;;;;4985442;28;129197;-64
2022/04/01 02:14:21;;;;;;;;;;;;;;;;;;4980627;28;106580;-64
2022/04/01 02:16:47;;;;;;;;;;;;;;;;;;4969386;28;107152;-64
2022/04/01 02:19:20;;;;;;;;;;;;;;;;;;4962154;28;135509;-65
2022/04/01 02:21:47;;;;;;;;;;;;;;;;;;4957106;28;136026;-64
2022/04/01 02:24:13;;;;;;;;;;;;;;;;;;4965037;28;108838;-65
2022/04/01 02:26:40;;;;;;;;;;;;;;;;;;4961271;28;136139;-64
2022/04/01 02:29:08;;;;;;;;;;;;;;;;;;4965534;28;109023;-65
2022/04/01 02:31:50;;;;;;;;;;;;;;;;;;4970986;28;106586;-65
2022/04/01 02:34:51;;;;;;;;;;;;;;;;;;4961578;28;106766;-64
2022/04/01 02:37:20;;;;;;;;;;;;;;;;;;4958244;28;129738;-64
2022/04/01 02:39:47;;;;;;;;;;;;;;;;;;4987245;28;106874;-65
2022/04/01 02:42:13;;;;;;;;;;;;;;;;;;4967950;28;108163;-65
2022/04/01 02:44:44;;;;;;;;;;;;;;;;;;4969174;28;106164;-64
2022/04/01 02:47:11;;;;;;;;;;;;;;;;;;4986328;28;137308;-65
2022/04/01 02:49:37;;;;;;;;;;;;;;;;;;4970699;28;136013;-65
2022/04/01 02:52:05;;;;;;;;;;;;;;;;;;4968628;28;114727;-65
2022/04/01 02:54:34;;;;;;;;;;;;;;;;;;4967543;28;108230;-65
2022/04/01 02:57:05;;;;;;;;;;;;;;;;;;4978285;28;108679;-64
2022/04/01 02:59:31;;;;;;;;;;;;;;;;;;4986948;28;106662;-65
2022/04/01 03:01:57;;;;;;;;;;;;;;;;;;4963885;28;136641;-65
2022/04/01 03:04:26;;;;;;;;;;;;;;;;;;4986913;28;106229;-65
2022/04/01 03:06:54;;;;;;;;;;;;;;;;;;4975027;28;108356;-64
2022/04/01 03:09:21;;;;;;;;;;;;;;;;;;4989065;28;109302;-65
2022/04/01 03:11:54;;;;;;;;;;;;;;;;;;4975062;28;106444;-64
2022/04/01 03:14:53;;;;;;;;;;;;;;;;;;4983570;28;106747;-65
2022/04/01 03:17:54;;;;;;;;;;;;;;;;;;4992398;28;107887;-65
2022/04/01 03:20:35;;;;;;;;;;;;;;;;;;4968616;28;107279;-64
2022/04/01 03:23:01;;;;;;;;;;;;;;;;;;4994009;28;107258;-64
2022/04/01 03:25:34;;;;;;;;;;;;;;;;;;4966432;28;106280;-65
2022/04/01 03:28:27;;;;;;;;;;;;;;;;;;4987601;28;106630;-65
2022/04/01 03:30:58;;;;;;;;;;;;;;;;;;4978866;28;109211;-65
2022/04/01 03:33:31;;;;;;;;;;;;;;;;;;4971692;28;105947;-65
2022/04/01 03:35:58;;;;;;;;;;;;;;;;;;4974537;28;139021;-65
2022/04/01 03:38:27;;;;;;;;;;;;;;;;;;4971370;28;107440;-66
2022/04/01 03:40:54;;;;;;;;;;;;;;;;;;4971711;28;107349;-65
2022/04/01 03:43:23;;;;;;;;;;;;;;;;;;4989645;28;107608;-65
2022/04/01 03:45:52;;;;;;;;;;;;;;;;;;4975447;28;106379;-65
2022/04/01 03:48:23;;;;;;;;;;;;;;;;;;4963094;28;107783;-65
2022/04/01 03:50:50;;;;;;;;;;;;;;;;;;4971911;28;108107;-63
2022/04/01 03:53:17;;;;;;;;;;;;;;;;;;4974770;28;106484;-63
2022/04/01 03:55:43;;;;;;;;;;;;;;;;;;4972037;28;107975;-63
2022/04/01 03:58:32;;;;;;;;;;;;;;;;;;4982170;28;107791;-63
2022/04/01 04:01:13;;;;;;;;;;;;;;;;;;4980053;28;106306;-63
2022/04/01 04:03:40;;;;;;;;;;;;;;;;;;4988958;28;136900;-63
2022/04/01 04:06:09;;;;;;;;;;;;;;;;;;4968724;28;106391;-64
2022/04/01 04:08:36;;;;;;;;;;;;;;;;;;4973647;28;108236;-64
2022/04/01 04:11:03;;;;;;;;;;;;;;;;;;4970927;28;107511;-64
2022/04/01 04:13:46;;;;;;;;;;;;;;;;;;4976709;28;106641;-63
2022/04/01 04:16:15;;;;;;;;;;;;;;;;;;4971112;28;109036;-64
2022/04/01 04:18:43;;;;;;;;;;;;;;;;;;4986239;28;108639;-64
2022/04/01 04:21:10;;;;;;;;;;;;;;;;;;4968204;28;106558;-64
2022/04/01 04:23:37;;;;;;;;;;;;;;;;;;4971353;28;108146;-64
2022/04/01 04:26:04;;;;;;;;;;;;;;;;;;4973790;28;136896;-64
2022/04/01 04:28:31;;;;;;;;;;;;;;;;;;4968251;28;107910;-64
2022/04/01 04:31:18;;;;;;;;;;;;;;;;;;4989477;28;107292;-64
2022/04/01 04:33:59;;;;;;;;;;;;;;;;;;4971617;28;106063;-64
2022/04/01 04:36:33;;;;;;;;;;;;;;;;;;4969866;28;108038;-64
2022/04/01 04:39:00;;;;;;;;;;;;;;;;;;4968817;28;138763;-64
2022/04/01 04:41:27;;;;;;;;;;;;;;;;;;4970385;28;106259;-64
2022/04/01 04:44:03;;;;;;;;;;;;;;;;;;4971155;28;108117;-64
2022/04/01 04:46:30;;;;;;;;;;;;;;;;;;4965979;28;119780;-64
2022/04/01 04:48:57;;;;;;;;;;;;;;;;;;4974411;28;105978;-64
2022/04/01 04:51:25;;;;;;;;;;;;;;;;;;4969860;28;108644;-64
2022/04/01 04:54:13;;;;;;;;;;;;;;;;;;4968339;28;106877;-64
2022/04/01 04:56:46;;;;;;;;;;;;;;;;;;4971037;28;108295;-64
2022/04/01 04:59:12;;;;;;;;;;;;;;;;;;4977676;28;122530;-64
2022/04/01 05:01:39;;;;;;;;;;;;;;;;;;4987460;28;107952;-64
2022/04/01 05:04:05;;;;;;;;;;;;;;;;;;4969405;28;108252;-64
2022/04/01 05:06:32;;;;;;;;;;;;;;;;;;4968089;28;139619;-64
2022/04/01 05:09:17;;;;;;;;;;;;;;;;;;4983801;28;106206;-64
2022/04/01 05:11:50;;;;;;;;;;;;;;;;;;4972992;28;108125;-64
2022/04/01 05:14:21;;;;;;;;;;;;;;;;;;4969821;28;106493;-64
2022/04/01 05:16:48;;;;;;;;;;;;;;;;;;4968603;28;108321;-64
2022/04/01 05:19:17;;;;;;;;;;;;;;;;;;4983664;28;107179;-64
2022/04/01 05:21:43;;;;;;;;;;;;;;;;;;4990408;28;129216;-63
2022/04/01 05:24:10;;;;;;;;;;;;;;;;;;4977584;28;108554;-64
2022/04/01 05:26:40;;;;;;;;;;;;;;;;;;4968874;28;129450;-64
2022/04/01 05:29:09;;;;;;;;;;;;;;;;;;4985886;28;107897;-65
2022/04/01 05:31:35;;;;;;;;;;;;;;;;;;4962228;28;135323;-64
2022/04/01 05:34:03;;;;;;;;;;;;;;;;;;4971116;28;109786;-66
2022/04/01 05:36:29;;;;;;;;;;;;;;;;;;4968821;28;108536;-63
2022/04/01 05:38:56;;;;;;;;;;;;;;;;;;4960457;28;129253;-63
2022/04/01 05:41:22;;;;;;;;;;;;;;;;;;4985418;28;106150;-63
2022/04/01 05:43:50;;;;;;;;;;;;;;;;;;4970943;28;107971;-63
2022/04/01 05:46:24;;;;;;;;;;;;;;;;;;4974500;28;109019;-63
2022/04/01 05:48:52;;;;;;;;;;;;;;;;;;4966910;28;106188;-64
2022/04/01 05:51:19;;;;;;;;;;;;;;;;;;4966562;28;107904;-64
2022/04/01 05:53:48;;;;;;;;;;;;;;;;;;4960820;28;109153;-65
2022/04/01 05:56:14;;;;;;;;;;;;;;;;;;4969888;28;128876;-65
2022/04/01 05:58:42;;;;;;;;;;;;;;;;;;4967693;28;108688;-64
2022/04/01 06:01:08;;;;;;;;;;;;;;;;;;4968034;28;129343;-64
2022/04/01 06:03:35;;;;;;;;;;;;;;;;;;4978575;28;108003;-66
2022/04/01 06:06:01;;;;;;;;;;;;;;;;;;4969159;28;108174;-66
2022/04/01 06:08:27;;;;;;;;;;;;;;;;;;4966907;28;129449;-65
2022/04/01 06:10:54;;;;;;;;;;;;;;;;;;4968764;28;135288;-64
2022/04/01 06:13:47;;;;;;;;;;;;;;;;;;4984468;28;107722;-65
2022/04/01 06:16:32;;;;;;;;;;;;;;;;;;4989604;28;105862;-64
2022/04/01 06:19:20;;;;;;;;;;;;;;;;;;4964052;28;108377;-64
2022/04/01 06:21:48;;;;;;;;;;;;;;;;;;4966740;28;106773;-64
2022/04/01 06:24:14;;;;;;;;;;;;;;;;;;4966665;28;109042;-65
2022/04/01 06:26:43;;;;;;;;;;;;;;;;;;4968320;28;108671;-64
2022/04/01 06:29:09;;;;;;;;;;;;;;;;;;4967358;28;131494;-66
2022/04/01 06:31:36;;;;;;;;;;;;;;;;;;4964593;28;108303;-64
2022/04/01 06:34:03;;;;;;;;;;;;;;;;;;4962978;28;136520;-64
2022/04/01 06:36:48;;;;;;;;;;;;;;;;;;4985938;28;106498;-64
2022/04/01 06:39:14;;;;;;;;;;;;;;;;;;4989887;28;136212;-64
2022/04/01 06:41:40;;;;;;;;;;;;;;;;;;4967766;28;131236;-64
2022/04/01 06:44:19;;;;;;;;;;;;;;;;;;4961871;28;108264;-64
2022/04/01 06:47:04;;;;;;;;;;;;;;;;;;4973839;28;106645;-65
2022/04/01 06:49:30;;;;;;;;;;;;;;;;;;4967260;28;128077;-66
2022/04/01 06:52:16;;;;;;;;;;;;;;;;;;4975015;28;106951;-65
2022/04/01 06:54:46;;;;;;;;;;;;;;;;;;4985841;28;106338;-65
2022/04/01 06:57:42;;;;;;;;;;;;;;;;;;4987357;28;105763;-65
2022/04/01 07:00:27;;;;;;;;;;;;;;;;;;4984742;28;107694;-64
2022/04/01 07:02:53;;;;;;;;;;;;;;;;;;4983826;28;113831;-65
2022/04/01 07:05:20;;;;;;;;;;;;;;;;;;4984760;28;136360;-64
2022/04/01 07:07:46;;;;;;;;;;;;;;;;;;4983412;28;136977;-66
2022/04/01 07:10:12;;;;;;;;;;;;;;;;;;4985270;28;106086;-63
2022/04/01 07:12:38;;;;;;;;;;;;;;;;;;4973040;28;135272;-64
2022/04/01 07:15:07;;;;;;;;;;;;;;;;;;4984480;28;136313;-65
2022/04/01 07:17:36;;;;;;;;;;;;;;;;;;4982920;28;128579;-65
2022/04/01 07:20:07;;;;;;;;;;;;;;;;;;4981611;28;134994;-67
2022/04/01 07:22:40;;;;;;;;;;;;;;;;;;4985137;28;114282;-65
2022/04/01 07:25:07;;;;;;;;;;;;;;;;;;4986597;28;129177;-65
2022/04/01 07:27:34;;;;;;;;;;;;;;;;;;4982952;28;135831;-66
2022/04/01 07:30:00;;;;;;;;;;;;;;;;;;4981380;28;124361;-65
2022/04/01 07:32:29;;;;;;;;;;;;;;;;;;4981024;28;136605;-65
2022/04/01 07:34:55;;;;;;;;;;;;;;;;;;4979003;28;123793;-66
2022/04/01 07:37:23;;;;;;;;;;;;;;;;;;4986936;28;126199;-66
2022/04/01 07:40:10;;;;;;;;;;;;;;;;;;4987815;28;106776;-66
2022/04/01 07:42:38;;;;;;;;;;;;;;;;;;4986440;28;135185;-66
2022/04/01 07:45:04;;;;;;;;;;;;;;;;;;4986699;28;122010;-68
2022/04/01 07:47:30;;;;;;;;;;;;;;;;;;4987401;28;116407;-66
2022/04/01 07:49:57;;;;;;;;;;;;;;;;;;4987478;28;128659;-67
2022/04/01 07:52:23;;;;;;;;;;;;;;;;;;4976629;28;136464;-67
2022/04/01 07:54:50;;;;;;;;;;;;;;;;;;4986740;28;119159;-67
2022/04/01 07:57:16;;;;;;;;;;;;;;;;;;4983976;28;129097;-67
2022/04/01 07:59:42;;;;;;;;;;;;;;;;;;4982372;28;137949;-67
2022/04/01 08:02:09;;;;;;;;;;;;;;;;;;4987584;28;135926;-68
2022/04/01 08:04:35;;;;;;;;;;;;;;;;;;4986638;28;129105;-66
2022/04/01 08:07:04;;;;;;;;;;;;;;;;;;4987347;28;116725;-68
2022/04/01 08:09:33;;;;;;;;;;;;;;;;;;4990659;28;106201;-66
2022/04/01 08:11:59;;;;;;;;;;;;;;;;;;4981585;28;136275;-66
2022/04/01 08:14:25;;;;;;;;;;;;;;;;;;4983075;28;137432;-65
2022/04/01 08:16:52;;;;;;;;;;;;;;;;;;4984817;28;127644;-69
2022/04/01 08:19:18;;;;;;;;;;;;;;;;;;4986560;28;137612;-67
2022/04/01 08:21:45;;;;;;;;;;;;;;;;;;4980098;28;135743;-67
2022/04/01 08:24:11;;;;;;;;;;;;;;;;;;4984745;28;129022;-67
2022/04/01 08:26:38;;;;;;;;;;;;;;;;;;4987248;28;135275;-68
2022/04/01 08:29:04;;;;;;;;;;;;;;;;;;4991742;28;118997;-69
2022/04/01 08:31:33;;;;;;;;;;;;;;;;;;4980816;28;135700;-67
2022/04/01 08:33:59;;;;;;;;;;;;;;;;;;4982989;28;137033;-67
2022/04/01 08:36:26;;;;;;;;;;;;;;;;;;4971032;28;128347;-67
2022/04/01 08:38:52;;;;;;;;;;;;;;;;;;4979447;28;136790;-69
2022/04/01 08:41:18;;;;;;;;;;;;;;;;;;4987635;27;129978;-69
2022/04/01 08:43:45;;;;;;;;;;;;;;;;;;4992207;28;129137;-70
2022/04/01 08:46:12;;;;;;;;;;;;;;;;;;4980056;28;137809;-70
2022/04/01 08:48:38;;;;;;;;;;;;;;;;;;4987501;28;126590;-66
2022/04/01 08:51:04;;;;;;;;;;;;;;;;;;4985500;28;129109;-68
2022/04/01 08:53:30;;;;;;;;;;;;;;;;;;4981946;28;137490;-69
2022/04/01 08:55:57;;;;;;;;;;;;;;;;;;4985867;28;125214;-66
2022/04/01 08:58:23;;;;;;;;;;;;;;;;;;4980425;28;116953;-67
2022/04/01 09:00:49;;;;;;;;;;;;;;;;;;4978528;28;132564;-69
2022/04/01 09:03:16;;;;;;;;;;;;;;;;;;4985932;28;127680;-69
2022/04/01 09:05:43;;;;;;;;;;;;;;;;;;4987022;28;135472;-68
2022/04/01 09:08:10;;;;;;;;;;;;;;;;;;4977131;28;125822;-68
2022/04/01 09:10:37;;;;;;;;;;;;;;;;;;4983051;28;127965;-67
2022/04/01 09:13:03;;;;;;;;;;;;;;;;;;4985034;28;136491;-67
2022/04/01 09:15:29;;;;;;;;;;;;;;;;;;4983089;28;129097;-68
2022/04/01 09:17:56;;;;;;;;;;;;;;;;;;4975644;28;125798;-66
2022/04/01 09:20:22;;;;;;;;;;;;;;;;;;4983865;28;137022;-65
2022/04/01 09:22:48;;;;;;;;;;;;;;;;;;4981125;28;128054;-66
2022/04/01 09:25:14;;;;;;;;;;;;;;;;;;4981559;28;133786;-66
2022/04/01 09:27:41;;;;;;;;;;;;;;;;;;4986301;28;136626;-67
2022/04/01 09:30:07;;;;;;;;;;;;;;;;;;4981976;28;124715;-66
2022/04/01 09:32:33;;;;;;;;;;;;;;;;;;4987523;28;136192;-68
2022/04/01 09:35:00;;;;;;;;;;;;;;;;;;4993019;28;136089;-67
2022/04/01 09:37:26;;;;;;;;;;;;;;;;;;4987601;28;126974;-65
2022/04/01 09:39:52;;;;;;;;;;;;;;;;;;4989618;28;119911;-65
2022/04/01 09:42:18;;;;;;;;;;;;;;;;;;4980226;28;129582;-66
2022/04/01 09:44:45;;;;;;;;;;;;;;;;;;4981113;28;135169;-67
2022/04/01 09:47:13;;;;;;;;;;;;;;;;;;4985854;28;110348;-66
2022/04/01 09:49:39;;;;;;;;;;;;;;;;;;4977404;28;127702;-66
2022/04/01 09:52:06;;;;;;;;;;;;;;;;;;4978603;28;135096;-68
2022/04/01 09:54:32;;;;;;;;;;;;;;;;;;4992469;28;108790;-67
2022/04/01 09:56:59;;;;;;;;;;;;;;;;;;4982986;28;130798;-68
2022/04/01 09:59:27;;;;;;;;;;;;;;;;;;4963362;28;113839;-67
2022/04/01 10:01:53;;;;;;;;;;;;;;;;;;4989399;28;129763;-68
2022/04/01 10:04:20;;;;;;;;;;;;;;;;;;4992631;28;138676;-66
2022/04/01 10:06:46;;;;;;;;;;;;;;;;;;4991032;28;137597;-66
2022/04/01 10:09:12;;;;;;;;;;;;;;;;;;4984960;28;124041;-66
2022/04/01 10:11:39;;;;;;;;;;;;;;;;;;4991117;28;135219;-66
2022/04/01 10:14:05;;;;;;;;;;;;;;;;;;4997594;28;137174;-66
2022/04/01 10:16:32;;;;;;;;;;;;;;;;;;4998317;28;131281;-67
2022/04/01 10:18:58;;;;;;;;;;;;;;;;;;4991114;28;134821;-67
2022/04/01 10:21:24;;;;;;;;;;;;;;;;;;4986199;28;107033;-67
2022/04/01 10:23:52;;;;;;;;;;;;;;;;;;4987384;28;127437;-72
2022/04/01 10:26:19;;;;;;;;;;;;;;;;;;4996552;28;135933;-70
2022/04/01 10:28:45;;;;;;;;;;;;;;;;;;4977084;28;128541;-68
2022/04/01 10:31:16;;;;;;;;;;;;;;;;;;4989405;28;136156;-66
2022/04/01 10:33:42;;;;;;;;;;;;;;;;;;4986724;28;136821;-67
2022/04/01 10:36:09;;;;;;;;;;;;;;;;;;4981672;28;129165;-68
2022/04/01 10:38:35;;;;;;;;;;;;;;;;;;4989102;28;134315;-66
2022/04/01 10:41:02;;;;;;;;;;;;;;;;;;4983503;28;129805;-65
2022/04/01 10:43:28;;;;;;;;;;;;;;;;;;4979204;28;137748;-64
2022/04/01 10:45:54;;;;;;;;;;;;;;;;;;4985897;28;136771;-65
2022/04/01 10:51:51;;;;;;;;;;;;;;;;;;4988938;28;129659;-65
2022/04/01 10:53:52;;;;;;;;;;;;;;;;;;4975433;28;126206;-67
2022/04/01 10:56:19;;;;;;;;;;;;;;;;;;4989077;28;127441;-65
2022/04/01 10:58:45;;;;;;;;;;;;;;;;;;4988618;28;135410;-64
2022/04/01 11:01:11;;;;;;;;;;;;;;;;;;4987676;28;137027;-65
2022/04/01 11:03:37;;;;;;;;;;;;;;;;;;4974860;28;135707;-65
2022/04/01 11:06:05;;;;;;;;;;;;;;;;;;4991229;28;107402;-64
2022/04/01 11:08:32;;;;;;;;;;;;;;;;;;4988080;28;128559;-66
2022/04/01 11:10:58;;;;;;;;;;;;;;;;;;4990060;28;137015;-64
2022/04/01 11:13:25;;;;;;;;;;;;;;;;;;4993487;28;138211;-63
2022/04/01 11:15:51;;;;;;;;;;;;;;;;;;4990095;28;128588;-64
2022/04/01 11:18:17;;;;;;;;;;;;;;;;;;4990186;28;135272;-65
2022/04/01 11:20:44;;;;;;;;;;;;;;;;;;4990130;28;136311;-64
2022/04/01 11:23:10;;;;;;;;;;;;;;;;;;4992158;28;127633;-64
2022/04/01 11:25:39;;;;;;;;;;;;;;;;;;4994804;28;136822;-64
2022/04/01 11:28:06;;;;;;;;;;;;;;;;;;4989564;28;107080;-64
2022/04/01 11:30:33;;;;;;;;;;;;;;;;;;4991965;28;136650;-63
2022/04/01 11:32:59;;;;;;;;;;;;;;;;;;4996953;28;106085;-63
2022/04/01 11:35:31;;;;;;;;;;;;;;;;;;4995280;28;127943;-63
2022/04/01 11:37:58;;;;;;;;;;;;;;;;;;4993629;28;107577;-63
2022/04/01 11:40:27;;;;;;;;;;;;;;;;;;4988037;28;136182;-63
2022/04/01 11:42:53;;;;;;;;;;;;;;;;;;4993477;28;129171;-63
2022/04/01 11:45:20;;;;;;;;;;;;;;;;;;4994047;28;135679;-63
2022/04/01 11:47:46;;;;;;;;;;;;;;;;;;4984008;28;110664;-64
2022/04/01 11:50:12;;;;;;;;;;;;;;;;;;4986629;28;135370;-64
2022/04/01 11:52:39;;;;;;;;;;;;;;;;;;4996113;28;138167;-63
2022/04/01 11:55:05;;;;;;;;;;;;;;;;;;4978257;28;122346;-64
2022/04/01 11:57:31;;;;;;;;;;;;;;;;;;4976197;28;136865;-63
2022/04/01 11:59:58;;;;;;;;;;;;;;;;;;4988830;28;109282;-63
2022/04/01 12:02:24;;;;;;;;;;;;;;;;;;4991508;28;131208;-63
2022/04/01 12:04:50;;;;;;;;;;;;;;;;;;4983120;28;133930;-63
2022/04/01 12:10:01;;;;;;;;;;;;;;;;;;4992834;28;126271;-66
2022/04/01 12:12:28;;;;;;;;;;;;;;;;;;4992229;28;137579;-64
2022/04/01 12:14:54;;;;;;;;;;;;;;;;;;4990185;28;126143;-63
2022/04/01 12:17:25;;;;;;;;;;;;;;;;;;4985306;28;136979;-64
2022/04/01 12:19:52;;;;;;;;;;;;;;;;;;4982310;28;136261;-64
2022/04/01 12:22:30;;;;;;;;;;;;;;;;;;4984568;28;128398;-64
2022/04/01 12:24:56;;;;;;;;;;;;;;;;;;4990221;28;135877;-64
2022/04/01 12:27:23;;;;;;;;;;;;;;;;;;4999711;28;135566;-64
2022/04/01 12:29:50;;;;;;;;;;;;;;;;;;4987991;28;133173;-67
2022/04/01 12:32:16;;;;;;;;;;;;;;;;;;4987254;28;135871;-65
2022/04/01 12:34:43;;;;;;;;;;;;;;;;;;4991614;28;128046;-64
2022/04/01 12:37:09;;;;;;;;;;;;;;;;;;4980243;28;139166;-64
2022/04/01 12:39:35;;;;;;;;;;;;;;;;;;4990613;28;110111;-64
2022/04/01 12:42:02;;;;;;;;;;;;;;;;;;4995739;28;119282;-64
2022/04/01 12:44:28;;;;;;;;;;;;;;;;;;4987417;28;137765;-65
2022/04/01 12:46:57;;;;;;;;;;;;;;;;;;4976616;28;137127;-66
2022/04/01 12:49:24;;;;;;;;;;;;;;;;;;4984976;28;128959;-65
2022/04/01 12:51:51;;;;;;;;;;;;;;;;;;4984364;28;135384;-66
2022/04/01 12:54:18;;;;;;;;;;;;;;;;;;4983810;28;129629;-66
2022/04/01 12:56:44;;;;;;;;;;;;;;;;;;4979301;28;137616;-66
2022/04/01 12:59:10;;;;;;;;;;;;;;;;;;4988043;28;136899;-66
2022/04/01 13:01:37;;;;;;;;;;;;;;;;;;4985944;28;129636;-66
2022/04/01 13:04:03;;;;;;;;;;;;;;;;;;4982619;28;135051;-67
2022/04/01 13:06:29;;;;;;;;;;;;;;;;;;4986973;28;136436;-67
2022/04/01 13:08:57;;;;;;;;;;;;;;;;;;4985235;28;129850;-67
2022/04/01 13:11:23;;;;;;;;;;;;;;;;;;4977174;28;135429;-67
2022/04/01 13:13:50;;;;;;;;;;;;;;;;;;4987677;28;130728;-66
2022/04/01 13:16:16;;;;;;;;;;;;;;;;;;4983601;28;135283;-66
2022/04/01 13:18:42;;;;;;;;;;;;;;;;;;4982479;28;136988;-67
2022/04/01 13:21:08;;;;;;;;;;;;;;;;;;4979365;28;129186;-68
2022/04/01 13:23:36;;;;;;;;;;;;;;;;;;4982214;28;137656;-67
2022/04/01 13:26:02;;;;;;;;;;;;;;;;;;4979021;28;128343;-67
2022/04/01 13:28:28;;;;;;;;;;;;;;;;;;4979231;28;129672;-68
2022/04/01 13:30:54;;;;;;;;;;;;;;;;;;4979917;28;135032;-67
2022/04/01 13:33:24;;;;;;;;;;;;;;;;;;4980623;28;136308;-68
2022/04/01 13:35:51;;;;;;;;;;;;;;;;;;4981250;28;136605;-68
2022/04/01 13:38:17;;;;;;;;;;;;;;;;;;4982098;28;136286;-68
2022/04/01 13:40:43;;;;;;;;;;;;;;;;;;4983011;28;105996;-67
2022/04/01 13:43:11;;;;;;;;;;;;;;;;;;4975129;28;131430;-67
2022/04/01 13:45:39;;;;;;;;;;;;;;;;;;4983304;28;135983;-67
2022/04/01 13:48:06;;;;;;;;;;;;;;;;;;4980339;28;127956;-67
2022/04/01 13:50:32;;;;;;;;;;;;;;;;;;4981651;28;135879;-66
2022/04/01 13:52:58;;;;;;;;;;;;;;;;;;4981721;28;129008;-67
2022/04/01 13:55:25;;;;;;;;;;;;;;;;;;4982080;28;128521;-68
2022/04/01 13:57:54;;;;;;;;;;;;;;;;;;4980246;28;129409;-67
2022/04/01 14:00:21;;;;;;;;;;;;;;;;;;4958245;28;121566;-66
2022/04/01 14:02:47;;;;;;;;;;;;;;;;;;4978545;28;136846;-66
2022/04/01 14:05:14;;;;;;;;;;;;;;;;;;4980082;28;140033;-66
2022/04/01 14:07:40;;;;;;;;;;;;;;;;;;4982863;28;126090;-67
2022/04/01 14:10:07;;;;;;;;;;;;;;;;;;4979480;28;135776;-67
2022/04/01 14:12:34;;;;;;;;;;;;;;;;;;4979262;28;107501;-65
2022/04/01 14:15:01;;;;;;;;;;;;;;;;;;4981529;28;106725;-65
2022/04/01 14:17:28;;;;;;;;;;;;;;;;;;4980058;28;135224;-65
2022/04/01 14:19:54;;;;;;;;;;;;;;;;;;4976599;28;121978;-65
2022/04/01 14:22:20;;;;;;;;;;;;;;;;;;4977617;28;135672;-66
2022/04/01 14:24:47;;;;;;;;;;;;;;;;;;4977004;28;108860;-66
2022/04/01 14:27:13;;;;;;;;;;;;;;;;;;4973245;28;130992;-65
2022/04/01 14:32:24;;;;;;;;;;;;;;;;;;4976147;28;137717;-65
2022/04/01 14:34:51;;;;;;;;;;;;;;;;;;4981297;28;105991;-64
2022/04/01 14:37:18;;;;;;;;;;;;;;;;;;4986278;28;135638;-65
2022/04/01 14:39:44;;;;;;;;;;;;;;;;;;4979332;28;128885;-64
2022/04/01 14:42:11;;;;;;;;;;;;;;;;;;4980051;28;135389;-65
2022/04/01 14:44:37;;;;;;;;;;;;;;;;;;4980756;28;107323;-64
2022/04/01 14:47:04;;;;;;;;;;;;;;;;;;4976954;28;119102;-68
2022/04/01 14:49:30;;;;;;;;;;;;;;;;;;4978072;28;135255;-66
2022/04/01 14:51:56;;;;;;;;;;;;;;;;;;4977457;28;126283;-64
2022/04/01 14:54:23;;;;;;;;;;;;;;;;;;4978216;28;127686;-67
2022/04/01 14:56:49;;;;;;;;;;;;;;;;;;4977524;28;129978;-64
2022/04/01 14:59:15;;;;;;;;;;;;;;;;;;4978393;28;136305;-65
2022/04/01 15:01:42;;;;;;;;;;;;;;;;;;4973599;28;137078;-65
2022/04/01 15:04:12;;;;;;;;;;;;;;;;;;4977669;28;121903;-64
2022/04/01 15:06:40;;;;;;;;;;;;;;;;;;4975335;28;129253;-64
2022/04/01 15:09:06;;;;;;;;;;;;;;;;;;4978491;28;136751;-65
2022/04/01 15:11:32;;;;;;;;;;;;;;;;;;4975098;28;134404;-64
2022/04/01 15:13:59;;;;;;;;;;;;;;;;;;4980911;28;128418;-66
2022/04/01 15:16:25;;;;;;;;;;;;;;;;;;4979021;28;137474;-65
2022/04/01 15:18:51;;;;;;;;;;;;;;;;;;4976338;28;135107;-65
2022/04/01 15:21:18;;;;;;;;;;;;;;;;;;4980014;28;128804;-63
2022/04/01 15:23:45;;;;;;;;;;;;;;;;;;4977257;28;134286;-67
2022/04/01 15:26:11;;;;;;;;;;;;;;;;;;4974712;28;126851;-66
2022/04/01 15:28:37;;;;;;;;;;;;;;;;;;4977134;28;137933;-64
2022/04/01 15:31:04;;;;;;;;;;;;;;;;;;4975439;28;137628;-70
2022/04/01 15:33:30;;;;;;;;;;;;;;;;;;4975707;28;128750;-67
2022/04/01 15:35:56;;;;;;;;;;;;;;;;;;4977441;28;134770;-67
2022/04/01 15:38:23;;;;;;;;;;;;;;;;;;4974836;28;139090;-66
2022/04/01 15:40:50;;;;;;;;;;;;;;;;;;4977344;28;129896;-66
2022/04/01 15:43:16;;;;;;;;;;;;;;;;;;4981723;28;136628;-66
2022/04/01 15:45:42;;;;;;;;;;;;;;;;;;4973809;28;125427;-65
2022/04/01 15:48:10;;;;;;;;;;;;;;;;;;4974203;28;135342;-65
2022/04/01 15:50:36;;;;;;;;;;;;;;;;;;4975217;28;137764;-66
2022/04/01 15:53:03;;;;;;;;;;;;;;;;;;4976218;28;129134;-65
2022/04/01 15:55:29;;;;;;;;;;;;;;;;;;4981938;28;107624;-65
2022/04/01 15:57:56;;;;;;;;;;;;;;;;;;4983423;28;107342;-65
2022/04/01 16:00:22;;;;;;;;;;;;;;;;;;4979340;28;129181;-65
2022/04/01 16:02:49;;;;;;;;;;;;;;;;;;4983205;28;137173;-67
2022/04/01 16:05:15;;;;;;;;;;;;;;;;;;4980297;28;135614;-64
2022/04/01 16:07:41;;;;;;;;;;;;;;;;;;4982226;28;137962;-65
2022/04/01 16:10:12;;;;;;;;;;;;;;;;;;4979754;28;128424;-65
2022/04/01 16:12:42;;;;;;;;;;;;;;;;;;4984035;28;129089;-64
2022/04/01 16:15:08;;;;;;;;;;;;;;;;;;4985534;28;136146;-64
2022/04/01 16:17:35;;;;;;;;;;;;;;;;;;4983053;28;137747;-64
2022/04/01 16:20:02;;;;;;;;;;;;;;;;;;4988176;28;124754;-64
2022/04/01 16:22:28;;;;;;;;;;;;;;;;;;4978398;28;120283;-64
2022/04/01 16:24:55;;;;;;;;;;;;;;;;;;4983755;28;135535;-64
2022/04/01 16:27:21;;;;;;;;;;;;;;;;;;4987103;28;129752;-64
2022/04/01 16:29:47;;;;;;;;;;;;;;;;;;4980612;28;122655;-64
2022/04/01 16:32:13;;;;;;;;;;;;;;;;;;4976147;28;116999;-65
2022/04/01 16:34:40;;;;;;;;;;;;;;;;;;4978032;28;126969;-65
2022/04/01 16:37:06;;;;;;;;;;;;;;;;;;4978323;28;137590;-65
2022/04/01 16:39:32;;;;;;;;;;;;;;;;;;4979258;28;129253;-65
2022/04/01 16:41:59;;;;;;;;;;;;;;;;;;4982022;28;107838;-65
2022/04/01 16:44:25;;;;;;;;;;;;;;;;;;4977207;28;136851;-65
2022/04/01 16:46:51;;;;;;;;;;;;;;;;;;4980749;28;127605;-64